sensor_id;sensor_type;location;lat;lon;timestamp;P1;durP1;ratioP1;P2;durP2;ratioP2
5225;SDS011;2632;51.666;7.146;2024-03-02T00:00:50;2.40;;;1.80;;
5225;SDS011;2632;51.666;7.146;2024-03-02T00:03:18;3.10;;;1.80;;
5225;SDS011;2632;51.666;7.146;2024-03-02T00:05:51;2.80;;;2.03;;
5225;SDS011;2632;51.666;7.146;2024-03-02T00:08:21;2.80;;;1.80;;
5225;SDS011;2632;51.666;7.146;2024-03-02T00:10:50;3.70;;;2.77;;
5225;SDS011;2632;51.666;7.146;2024-03-02T00:13:18;2.70;;;1.87;;
5225;SDS011;2632;51.666;7.146;2024-03-02T00:15:51;2.83;;;1.90;;
5225;SDS011;2632;51.666;7.146;2024-03-02T00:18:20;3.80;;;2.20;;
5225;SDS011;2632;51.666;7.146;2024-03-02T00:20:54;2.50;;;1.90;;
5225;SDS011;2632;51.666;7.146;2024-03-02T00:23:22;3.90;;;2.10;;
5225;SDS011;2632;51.666;7.146;2024-03-02T00:25:50;2.80;;;2.17;;
5225;SDS011;2632;51.666;7.146;2024-03-02T00:28:22;3.50;;;2.10;;
5225;SDS011;2632;51.666;7.146;2024-03-02T00:31:12;3.00;;;1.90;;
5225;SDS011;2632;51.666;7.146;2024-03-02T00:33:40;5.80;;;2.17;;
5225;SDS011;2632;51.666;7.146;2024-03-02T00:36:09;3.20;;;2.20;;
5225;SDS011;2632;51.666;7.146;2024-03-02T00:41:30;5.30;;;2.00;;
5225;SDS011;2632;51.666;7.146;2024-03-02T00:44:01;3.50;;;2.10;;
5225;SDS011;2632;51.666;7.146;2024-03-02T00:46:31;3.57;;;2.23;;
5225;SDS011;2632;51.666;7.146;2024-03-02T00:49:02;2.60;;;2.00;;
5225;SDS011;2632;51.666;7.146;2024-03-02T00:51:37;3.87;;;2.13;;
5225;SDS011;2632;51.666;7.146;2024-03-02T00:54:05;2.10;;;1.90;;
5225;SDS011;2632;51.666;7.146;2024-03-02T00:56:34;2.43;;;1.70;;
5225;SDS011;2632;51.666;7.146;2024-03-02T00:59:01;2.17;;;1.83;;
5225;SDS011;2632;51.666;7.146;2024-03-02T01:01:28;1.93;;;1.50;;
5225;SDS011;2632;51.666;7.146;2024-03-02T01:03:55;2.20;;;1.83;;
5225;SDS011;2632;51.666;7.146;2024-03-02T01:06:22;2.30;;;1.63;;
5225;SDS011;2632;51.666;7.146;2024-03-02T01:08:49;1.40;;;1.30;;
5225;SDS011;2632;51.666;7.146;2024-03-02T01:11:18;1.93;;;1.70;;
5225;SDS011;2632;51.666;7.146;2024-03-02T01:13:48;2.73;;;1.90;;
5225;SDS011;2632;51.666;7.146;2024-03-02T01:16:14;2.07;;;1.37;;
5225;SDS011;2632;51.666;7.146;2024-03-02T01:18:41;1.97;;;1.77;;
5225;SDS011;2632;51.666;7.146;2024-03-02T01:21:08;2.10;;;1.50;;
5225;SDS011;2632;51.666;7.146;2024-03-02T01:23:35;4.40;;;1.60;;
5225;SDS011;2632;51.666;7.146;2024-03-02T01:26:02;3.77;;;1.80;;
5225;SDS011;2632;51.666;7.146;2024-03-02T01:28:28;2.03;;;1.60;;
5225;SDS011;2632;51.666;7.146;2024-03-02T01:30:55;1.73;;;1.63;;
5225;SDS011;2632;51.666;7.146;2024-03-02T01:33:22;1.67;;;1.47;;
5225;SDS011;2632;51.666;7.146;2024-03-02T01:35:49;2.73;;;1.80;;
5225;SDS011;2632;51.666;7.146;2024-03-02T01:38:16;1.97;;;1.70;;
5225;SDS011;2632;51.666;7.146;2024-03-02T01:40:43;2.17;;;1.50;;
5225;SDS011;2632;51.666;7.146;2024-03-02T01:43:10;2.60;;;2.07;;
5225;SDS011;2632;51.666;7.146;2024-03-02T01:45:37;3.10;;;1.80;;
5225;SDS011;2632;51.666;7.146;2024-03-02T01:48:04;2.07;;;1.47;;
5225;SDS011;2632;51.666;7.146;2024-03-02T01:50:32;3.33;;;1.23;;
5225;SDS011;2632;51.666;7.146;2024-03-02T01:53:00;2.57;;;1.60;;
5225;SDS011;2632;51.666;7.146;2024-03-02T01:55:28;1.40;;;1.23;;
5225;SDS011;2632;51.666;7.146;2024-03-02T01:57:56;3.57;;;1.70;;
5225;SDS011;2632;51.666;7.146;2024-03-02T02:00:24;2.00;;;1.53;;
5225;SDS011;2632;51.666;7.146;2024-03-02T02:02:53;2.80;;;1.30;;
5225;SDS011;2632;51.666;7.146;2024-03-02T02:05:20;3.63;;;1.80;;
5225;SDS011;2632;51.666;7.146;2024-03-02T02:07:47;1.60;;;1.50;;
5225;SDS011;2632;51.666;7.146;2024-03-02T02:10:13;2.57;;;1.30;;
5225;SDS011;2632;51.666;7.146;2024-03-02T02:12:40;2.27;;;1.50;;
5225;SDS011;2632;51.666;7.146;2024-03-02T02:15:23;1.70;;;1.50;;
5225;SDS011;2632;51.666;7.146;2024-03-02T02:17:50;4.87;;;1.40;;
5225;SDS011;2632;51.666;7.146;2024-03-02T02:20:17;1.47;;;1.13;;
5225;SDS011;2632;51.666;7.146;2024-03-02T02:25:21;1.47;;;1.30;;
5225;SDS011;2632;51.666;7.146;2024-03-02T02:27:48;2.90;;;1.47;;
5225;SDS011;2632;51.666;7.146;2024-03-02T02:30:18;3.33;;;1.73;;
5225;SDS011;2632;51.666;7.146;2024-03-02T02:32:47;1.97;;;1.40;;
5225;SDS011;2632;51.666;7.146;2024-03-02T02:35:13;2.80;;;1.23;;
5225;SDS011;2632;51.666;7.146;2024-03-02T02:37:40;4.60;;;1.43;;
5225;SDS011;2632;51.666;7.146;2024-03-02T02:40:07;3.00;;;1.67;;
5225;SDS011;2632;51.666;7.146;2024-03-02T02:42:35;2.23;;;1.60;;
5225;SDS011;2632;51.666;7.146;2024-03-02T02:45:01;2.50;;;1.30;;
5225;SDS011;2632;51.666;7.146;2024-03-02T02:47:28;1.50;;;1.40;;
5225;SDS011;2632;51.666;7.146;2024-03-02T02:49:56;1.50;;;1.40;;
5225;SDS011;2632;51.666;7.146;2024-03-02T02:52:23;3.50;;;1.80;;
5225;SDS011;2632;51.666;7.146;2024-03-02T02:54:49;1.70;;;1.60;;
5225;SDS011;2632;51.666;7.146;2024-03-02T02:57:17;2.20;;;1.60;;
5225;SDS011;2632;51.666;7.146;2024-03-02T02:59:44;2.50;;;1.90;;
5225;SDS011;2632;51.666;7.146;2024-03-02T03:02:10;2.30;;;1.50;;
5225;SDS011;2632;51.666;7.146;2024-03-02T03:04:39;1.30;;;1.20;;
5225;SDS011;2632;51.666;7.146;2024-03-02T03:07:06;2.20;;;1.17;;
5225;SDS011;2632;51.666;7.146;2024-03-02T03:09:32;1.50;;;1.30;;
5225;SDS011;2632;51.666;7.146;2024-03-02T03:12:03;1.50;;;1.20;;
5225;SDS011;2632;51.666;7.146;2024-03-02T03:14:30;1.87;;;1.30;;
5225;SDS011;2632;51.666;7.146;2024-03-02T03:16:56;2.60;;;1.37;;
5225;SDS011;2632;51.666;7.146;2024-03-02T03:19:23;2.30;;;1.13;;
5225;SDS011;2632;51.666;7.146;2024-03-02T03:21:49;1.53;;;1.40;;
5225;SDS011;2632;51.666;7.146;2024-03-02T03:24:16;2.70;;;1.10;;
5225;SDS011;2632;51.666;7.146;2024-03-02T03:26:43;2.97;;;1.60;;
5225;SDS011;2632;51.666;7.146;2024-03-02T03:29:09;1.37;;;1.20;;
5225;SDS011;2632;51.666;7.146;2024-03-02T03:31:36;1.90;;;1.10;;
5225;SDS011;2632;51.666;7.146;2024-03-02T03:34:03;1.30;;;1.00;;
5225;SDS011;2632;51.666;7.146;2024-03-02T03:36:30;1.93;;;1.33;;
5225;SDS011;2632;51.666;7.146;2024-03-02T03:38:56;4.50;;;2.03;;
5225;SDS011;2632;51.666;7.146;2024-03-02T03:41:23;1.80;;;1.30;;
5225;SDS011;2632;51.666;7.146;2024-03-02T03:43:50;1.43;;;1.23;;
5225;SDS011;2632;51.666;7.146;2024-03-02T03:46:18;1.30;;;1.17;;
5225;SDS011;2632;51.666;7.146;2024-03-02T03:48:44;3.10;;;1.70;;
5225;SDS011;2632;51.666;7.146;2024-03-02T03:51:11;2.23;;;1.10;;
5225;SDS011;2632;51.666;7.146;2024-03-02T03:53:37;3.73;;;1.40;;
5225;SDS011;2632;51.666;7.146;2024-03-02T03:56:04;1.30;;;1.20;;
5225;SDS011;2632;51.666;7.146;2024-03-02T03:58:31;3.90;;;1.20;;
5225;SDS011;2632;51.666;7.146;2024-03-02T04:00:58;1.10;;;1.00;;
5225;SDS011;2632;51.666;7.146;2024-03-02T04:03:24;2.37;;;1.20;;
5225;SDS011;2632;51.666;7.146;2024-03-02T04:05:51;1.53;;;1.10;;
5225;SDS011;2632;51.666;7.146;2024-03-02T04:08:18;1.77;;;1.13;;
5225;SDS011;2632;51.666;7.146;2024-03-02T04:10:44;5.13;;;1.30;;
5225;SDS011;2632;51.666;7.146;2024-03-02T04:13:11;1.00;;;1.00;;
5225;SDS011;2632;51.666;7.146;2024-03-02T04:15:38;4.53;;;1.47;;
5225;SDS011;2632;51.666;7.146;2024-03-02T04:18:04;2.20;;;1.20;;
5225;SDS011;2632;51.666;7.146;2024-03-02T04:20:31;2.00;;;1.43;;
5225;SDS011;2632;51.666;7.146;2024-03-02T04:22:58;2.80;;;1.57;;
5225;SDS011;2632;51.666;7.146;2024-03-02T04:25:25;4.87;;;1.30;;
5225;SDS011;2632;51.666;7.146;2024-03-02T04:27:51;1.20;;;1.10;;
5225;SDS011;2632;51.666;7.146;2024-03-02T04:30:18;4.87;;;1.30;;
5225;SDS011;2632;51.666;7.146;2024-03-02T04:32:45;1.37;;;1.20;;
5225;SDS011;2632;51.666;7.146;2024-03-02T04:35:15;3.87;;;1.40;;
5225;SDS011;2632;51.666;7.146;2024-03-02T04:37:41;2.07;;;1.10;;
5225;SDS011;2632;51.666;7.146;2024-03-02T04:40:08;4.60;;;1.37;;
5225;SDS011;2632;51.666;7.146;2024-03-02T04:42:35;2.47;;;1.30;;
5225;SDS011;2632;51.666;7.146;2024-03-02T04:45:02;8.47;;;1.47;;
5225;SDS011;2632;51.666;7.146;2024-03-02T04:47:29;2.00;;;1.40;;
5225;SDS011;2632;51.666;7.146;2024-03-02T04:49:56;3.17;;;1.27;;
5225;SDS011;2632;51.666;7.146;2024-03-02T04:52:22;2.50;;;1.20;;
5225;SDS011;2632;51.666;7.146;2024-03-02T04:54:49;1.67;;;1.00;;
5225;SDS011;2632;51.666;7.146;2024-03-02T04:57:34;1.80;;;1.30;;
5225;SDS011;2632;51.666;7.146;2024-03-02T05:00:01;3.53;;;1.40;;
5225;SDS011;2632;51.666;7.146;2024-03-02T05:02:33;1.90;;;1.40;;
5225;SDS011;2632;51.666;7.146;2024-03-02T05:04:59;1.33;;;1.10;;
5225;SDS011;2632;51.666;7.146;2024-03-02T05:07:26;1.20;;;1.10;;
5225;SDS011;2632;51.666;7.146;2024-03-02T05:09:52;1.40;;;1.30;;
5225;SDS011;2632;51.666;7.146;2024-03-02T05:12:20;1.17;;;1.07;;
5225;SDS011;2632;51.666;7.146;2024-03-02T05:15:01;1.43;;;1.33;;
5225;SDS011;2632;51.666;7.146;2024-03-02T05:17:28;5.17;;;1.50;;
5225;SDS011;2632;51.666;7.146;2024-03-02T05:19:55;1.53;;;1.10;;
5225;SDS011;2632;51.666;7.146;2024-03-02T05:22:22;1.40;;;1.20;;
5225;SDS011;2632;51.666;7.146;2024-03-02T05:24:48;1.80;;;1.23;;
5225;SDS011;2632;51.666;7.146;2024-03-02T05:27:15;2.17;;;1.20;;
5225;SDS011;2632;51.666;7.146;2024-03-02T05:29:43;1.33;;;1.23;;
5225;SDS011;2632;51.666;7.146;2024-03-02T05:32:09;2.07;;;1.30;;
5225;SDS011;2632;51.666;7.146;2024-03-02T05:34:36;1.33;;;1.23;;
5225;SDS011;2632;51.666;7.146;2024-03-02T05:37:03;2.20;;;1.17;;
5225;SDS011;2632;51.666;7.146;2024-03-02T05:39:30;1.90;;;1.80;;
5225;SDS011;2632;51.666;7.146;2024-03-02T05:41:56;1.30;;;1.20;;
5225;SDS011;2632;51.666;7.146;2024-03-02T05:44:23;2.40;;;1.40;;
5225;SDS011;2632;51.666;7.146;2024-03-02T05:46:50;2.70;;;1.70;;
5225;SDS011;2632;51.666;7.146;2024-03-02T05:49:16;4.47;;;1.30;;
5225;SDS011;2632;51.666;7.146;2024-03-02T05:51:43;3.77;;;1.80;;
5225;SDS011;2632;51.666;7.146;2024-03-02T05:54:10;3.03;;;1.57;;
5225;SDS011;2632;51.666;7.146;2024-03-02T05:56:37;1.60;;;1.27;;
5225;SDS011;2632;51.666;7.146;2024-03-02T05:59:04;2.63;;;1.80;;
5225;SDS011;2632;51.666;7.146;2024-03-02T06:01:40;3.60;;;2.00;;
5225;SDS011;2632;51.666;7.146;2024-03-02T06:04:10;2.13;;;1.77;;
5225;SDS011;2632;51.666;7.146;2024-03-02T06:06:37;6.60;;;1.80;;
5225;SDS011;2632;51.666;7.146;2024-03-02T06:09:05;4.27;;;2.07;;
5225;SDS011;2632;51.666;7.146;2024-03-02T06:11:35;2.90;;;1.80;;
5225;SDS011;2632;51.666;7.146;2024-03-02T06:14:03;3.90;;;2.00;;
5225;SDS011;2632;51.666;7.146;2024-03-02T06:16:30;2.80;;;1.60;;
5225;SDS011;2632;51.666;7.146;2024-03-02T06:18:57;2.37;;;1.33;;
5225;SDS011;2632;51.666;7.146;2024-03-02T06:21:24;9.20;;;1.70;;
5225;SDS011;2632;51.666;7.146;2024-03-02T06:23:51;2.80;;;1.73;;
5225;SDS011;2632;51.666;7.146;2024-03-02T06:26:17;3.10;;;1.77;;
5225;SDS011;2632;51.666;7.146;2024-03-02T06:28:48;1.63;;;1.53;;
5225;SDS011;2632;51.666;7.146;2024-03-02T06:31:14;2.40;;;1.53;;
5225;SDS011;2632;51.666;7.146;2024-03-02T06:33:41;3.37;;;1.73;;
5225;SDS011;2632;51.666;7.146;2024-03-02T06:36:08;2.67;;;2.00;;
5225;SDS011;2632;51.666;7.146;2024-03-02T06:38:35;2.63;;;1.70;;
5225;SDS011;2632;51.666;7.146;2024-03-02T06:41:04;3.10;;;2.20;;
5225;SDS011;2632;51.666;7.146;2024-03-02T06:43:31;4.23;;;2.00;;
5225;SDS011;2632;51.666;7.146;2024-03-02T06:45:58;5.37;;;2.00;;
5225;SDS011;2632;51.666;7.146;2024-03-02T06:48:24;5.47;;;2.07;;
5225;SDS011;2632;51.666;7.146;2024-03-02T06:50:51;3.50;;;2.23;;
5225;SDS011;2632;51.666;7.146;2024-03-02T06:53:18;2.70;;;2.20;;
5225;SDS011;2632;51.666;7.146;2024-03-02T06:55:46;4.00;;;2.20;;
5225;SDS011;2632;51.666;7.146;2024-03-02T06:58:13;3.27;;;2.40;;
5225;SDS011;2632;51.666;7.146;2024-03-02T07:00:42;2.20;;;2.00;;
5225;SDS011;2632;51.666;7.146;2024-03-02T07:03:08;2.90;;;2.60;;
5225;SDS011;2632;51.666;7.146;2024-03-02T07:05:35;2.27;;;2.03;;
5225;SDS011;2632;51.666;7.146;2024-03-02T07:08:02;2.97;;;2.07;;
5225;SDS011;2632;51.666;7.146;2024-03-02T07:10:31;3.30;;;2.87;;
5225;SDS011;2632;51.666;7.146;2024-03-02T07:12:58;4.40;;;2.57;;
5225;SDS011;2632;51.666;7.146;2024-03-02T07:15:24;3.40;;;2.20;;
5225;SDS011;2632;51.666;7.146;2024-03-02T07:18:06;3.43;;;2.33;;
5225;SDS011;2632;51.666;7.146;2024-03-02T07:20:33;5.27;;;2.43;;
5225;SDS011;2632;51.666;7.146;2024-03-02T07:22:59;4.33;;;2.97;;
5225;SDS011;2632;51.666;7.146;2024-03-02T07:25:26;3.93;;;2.70;;
5225;SDS011;2632;51.666;7.146;2024-03-02T07:27:55;4.23;;;2.40;;
5225;SDS011;2632;51.666;7.146;2024-03-02T07:30:22;3.27;;;2.70;;
5225;SDS011;2632;51.666;7.146;2024-03-02T07:32:52;5.00;;;2.93;;
5225;SDS011;2632;51.666;7.146;2024-03-02T07:35:21;4.97;;;2.87;;
5225;SDS011;2632;51.666;7.146;2024-03-02T07:37:48;4.83;;;3.10;;
5225;SDS011;2632;51.666;7.146;2024-03-02T07:40:15;4.00;;;2.50;;
5225;SDS011;2632;51.666;7.146;2024-03-02T07:42:42;4.67;;;2.77;;
5225;SDS011;2632;51.666;7.146;2024-03-02T07:45:08;4.57;;;2.80;;
5225;SDS011;2632;51.666;7.146;2024-03-02T07:47:36;7.50;;;2.70;;
5225;SDS011;2632;51.666;7.146;2024-03-02T07:50:03;6.17;;;2.70;;
5225;SDS011;2632;51.666;7.146;2024-03-02T07:52:32;3.00;;;2.40;;
5225;SDS011;2632;51.666;7.146;2024-03-02T07:54:59;3.43;;;2.40;;
5225;SDS011;2632;51.666;7.146;2024-03-02T07:57:26;5.90;;;2.30;;
5225;SDS011;2632;51.666;7.146;2024-03-02T07:59:53;8.20;;;2.87;;
5225;SDS011;2632;51.666;7.146;2024-03-02T08:02:20;6.90;;;2.30;;
5225;SDS011;2632;51.666;7.146;2024-03-02T08:04:46;4.90;;;2.87;;
5225;SDS011;2632;51.666;7.146;2024-03-02T08:07:13;2.50;;;2.30;;
5225;SDS011;2632;51.666;7.146;2024-03-02T08:09:40;4.00;;;2.87;;
5225;SDS011;2632;51.666;7.146;2024-03-02T08:12:06;3.17;;;2.60;;
5225;SDS011;2632;51.666;7.146;2024-03-02T08:14:33;3.10;;;2.60;;
5225;SDS011;2632;51.666;7.146;2024-03-02T08:17:00;3.87;;;2.93;;
5225;SDS011;2632;51.666;7.146;2024-03-02T08:19:27;3.83;;;3.50;;
5225;SDS011;2632;51.666;7.146;2024-03-02T08:21:54;5.10;;;3.63;;
5225;SDS011;2632;51.666;7.146;2024-03-02T08:24:21;2.90;;;2.37;;
5225;SDS011;2632;51.666;7.146;2024-03-02T08:26:48;4.17;;;2.30;;
5225;SDS011;2632;51.666;7.146;2024-03-02T08:29:14;3.47;;;2.17;;
5225;SDS011;2632;51.666;7.146;2024-03-02T08:31:41;3.20;;;2.60;;
5225;SDS011;2632;51.666;7.146;2024-03-02T08:34:08;2.63;;;1.97;;
5225;SDS011;2632;51.666;7.146;2024-03-02T08:36:35;2.87;;;2.13;;
5225;SDS011;2632;51.666;7.146;2024-03-02T08:39:02;3.80;;;2.63;;
5225;SDS011;2632;51.666;7.146;2024-03-02T08:41:29;9.07;;;8.17;;
5225;SDS011;2632;51.666;7.146;2024-03-02T08:43:56;8.20;;;7.67;;
5225;SDS011;2632;51.666;7.146;2024-03-02T08:46:22;7.20;;;6.63;;
5225;SDS011;2632;51.666;7.146;2024-03-02T08:48:49;7.63;;;6.97;;
5225;SDS011;2632;51.666;7.146;2024-03-02T08:51:16;7.90;;;7.20;;
5225;SDS011;2632;51.666;7.146;2024-03-02T08:53:42;9.20;;;8.57;;
5225;SDS011;2632;51.666;7.146;2024-03-02T08:56:10;8.17;;;7.67;;
5225;SDS011;2632;51.666;7.146;2024-03-02T08:58:36;7.83;;;7.33;;
5225;SDS011;2632;51.666;7.146;2024-03-02T09:01:03;7.80;;;7.30;;
5225;SDS011;2632;51.666;7.146;2024-03-02T09:03:30;6.93;;;6.43;;
5225;SDS011;2632;51.666;7.146;2024-03-02T09:05:59;7.50;;;6.90;;
5225;SDS011;2632;51.666;7.146;2024-03-02T09:08:26;6.93;;;6.47;;
5225;SDS011;2632;51.666;7.146;2024-03-02T09:10:52;7.70;;;5.27;;
5225;SDS011;2632;51.666;7.146;2024-03-02T09:13:19;6.30;;;5.90;;
5225;SDS011;2632;51.666;7.146;2024-03-02T09:15:46;6.10;;;5.70;;
5225;SDS011;2632;51.666;7.146;2024-03-02T09:18:14;2.20;;;2.00;;
5225;SDS011;2632;51.666;7.146;2024-03-02T09:20:41;4.30;;;1.80;;
5225;SDS011;2632;51.666;7.146;2024-03-02T09:23:08;2.33;;;2.10;;
5225;SDS011;2632;51.666;7.146;2024-03-02T09:25:34;2.53;;;2.27;;
5225;SDS011;2632;51.666;7.146;2024-03-02T09:28:02;2.30;;;2.03;;
5225;SDS011;2632;51.666;7.146;2024-03-02T09:30:29;2.67;;;2.00;;
5225;SDS011;2632;51.666;7.146;2024-03-02T09:32:56;4.10;;;2.03;;
5225;SDS011;2632;51.666;7.146;2024-03-02T09:35:42;7.50;;;7.00;;
5225;SDS011;2632;51.666;7.146;2024-03-02T09:38:09;6.10;;;5.60;;
5225;SDS011;2632;51.666;7.146;2024-03-02T09:40:36;4.20;;;2.33;;
5225;SDS011;2632;51.666;7.146;2024-03-02T09:43:02;9.63;;;9.00;;
5225;SDS011;2632;51.666;7.146;2024-03-02T09:45:29;8.00;;;7.50;;
5225;SDS011;2632;51.666;7.146;2024-03-02T09:47:57;6.87;;;6.37;;
5225;SDS011;2632;51.666;7.146;2024-03-02T09:50:24;5.97;;;5.67;;
5225;SDS011;2632;51.666;7.146;2024-03-02T09:52:50;8.70;;;8.30;;
5225;SDS011;2632;51.666;7.146;2024-03-02T09:55:18;6.77;;;6.33;;
5225;SDS011;2632;51.666;7.146;2024-03-02T09:57:46;6.17;;;5.80;;
5225;SDS011;2632;51.666;7.146;2024-03-02T10:00:15;5.07;;;4.83;;
5225;SDS011;2632;51.666;7.146;2024-03-02T10:02:42;4.43;;;4.23;;
5225;SDS011;2632;51.666;7.146;2024-03-02T10:05:09;5.13;;;4.73;;
5225;SDS011;2632;51.666;7.146;2024-03-02T10:07:36;3.57;;;3.27;;
5225;SDS011;2632;51.666;7.146;2024-03-02T10:10:12;3.10;;;2.90;;
5225;SDS011;2632;51.666;7.146;2024-03-02T10:12:40;2.43;;;2.33;;
5225;SDS011;2632;51.666;7.146;2024-03-02T10:15:07;2.40;;;2.28;;
5225;SDS011;2632;51.666;7.146;2024-03-02T10:17:35;4.93;;;2.70;;
5225;SDS011;2632;51.666;7.146;2024-03-02T10:20:21;2.40;;;2.20;;
5225;SDS011;2632;51.666;7.146;2024-03-02T10:22:51;1.95;;;1.85;;
5225;SDS011;2632;51.666;7.146;2024-03-02T10:28:12;1.98;;;1.70;;
5225;SDS011;2632;51.666;7.146;2024-03-02T10:30:39;1.55;;;1.45;;
5225;SDS011;2632;51.666;7.146;2024-03-02T10:33:07;1.70;;;1.60;;
5225;SDS011;2632;51.666;7.146;2024-03-02T10:35:34;4.32;;;1.75;;
5225;SDS011;2632;51.666;7.146;2024-03-02T10:38:03;2.08;;;1.70;;
5225;SDS011;2632;51.666;7.146;2024-03-02T10:40:31;2.58;;;1.63;;
5225;SDS011;2632;51.666;7.146;2024-03-02T10:42:58;2.38;;;1.60;;
5225;SDS011;2632;51.666;7.146;2024-03-02T10:45:29;3.53;;;1.30;;
5225;SDS011;2632;51.666;7.146;2024-03-02T10:47:56;1.93;;;1.03;;
5225;SDS011;2632;51.666;7.146;2024-03-02T10:50:24;2.07;;;1.20;;
5225;SDS011;2632;51.666;7.146;2024-03-02T10:52:51;3.07;;;1.07;;
5225;SDS011;2632;51.666;7.146;2024-03-02T10:55:17;1.43;;;1.23;;
5225;SDS011;2632;51.666;7.146;2024-03-02T10:57:49;1.70;;;1.00;;
5225;SDS011;2632;51.666;7.146;2024-03-02T11:00:19;1.83;;;1.13;;
5225;SDS011;2632;51.666;7.146;2024-03-02T11:02:52;1.30;;;1.20;;
5225;SDS011;2632;51.666;7.146;2024-03-02T11:05:31;1.70;;;1.07;;
5225;SDS011;2632;51.666;7.146;2024-03-02T11:08:02;2.25;;;1.30;;
5225;SDS011;2632;51.666;7.146;2024-03-02T11:10:38;1.50;;;1.40;;
5225;SDS011;2632;51.666;7.146;2024-03-02T11:13:09;2.38;;;1.30;;
5225;SDS011;2632;51.666;7.146;2024-03-02T11:15:39;1.75;;;1.38;;
5225;SDS011;2632;51.666;7.146;2024-03-02T11:18:09;4.00;;;1.92;;
5225;SDS011;2632;51.666;7.146;2024-03-02T11:20:38;1.73;;;1.35;;
5225;SDS011;2632;51.666;7.146;2024-03-02T11:23:06;2.50;;;2.00;;
5225;SDS011;2632;51.666;7.146;2024-03-02T11:25:34;2.67;;;2.20;;
5225;SDS011;2632;51.666;7.146;2024-03-02T11:28:02;2.83;;;2.20;;
5225;SDS011;2632;51.666;7.146;2024-03-02T11:33:01;2.00;;;1.63;;
5225;SDS011;2632;51.666;7.146;2024-03-02T11:35:34;2.40;;;2.15;;
5225;SDS011;2632;51.666;7.146;2024-03-02T11:38:08;3.05;;;1.92;;
5225;SDS011;2632;51.666;7.146;2024-03-02T11:40:36;2.00;;;1.60;;
5225;SDS011;2632;51.666;7.146;2024-03-02T11:43:04;3.88;;;2.47;;
5225;SDS011;2632;51.666;7.146;2024-03-02T11:45:32;1.63;;;1.50;;
5225;SDS011;2632;51.666;7.146;2024-03-02T11:48:00;2.78;;;1.40;;
5225;SDS011;2632;51.666;7.146;2024-03-02T11:50:30;1.88;;;1.30;;
5225;SDS011;2632;51.666;7.146;2024-03-02T11:53:00;1.65;;;1.55;;
5225;SDS011;2632;51.666;7.146;2024-03-02T11:55:27;1.70;;;1.60;;
5225;SDS011;2632;51.666;7.146;2024-03-02T11:57:56;1.85;;;1.25;;
5225;SDS011;2632;51.666;7.146;2024-03-02T12:00:25;1.20;;;1.10;;
5225;SDS011;2632;51.666;7.146;2024-03-02T12:03:07;1.88;;;1.70;;
5225;SDS011;2632;51.666;7.146;2024-03-02T12:05:36;1.80;;;1.40;;
5225;SDS011;2632;51.666;7.146;2024-03-02T12:08:03;1.83;;;1.40;;
5225;SDS011;2632;51.666;7.146;2024-03-02T12:10:31;4.88;;;1.42;;
5225;SDS011;2632;51.666;7.146;2024-03-02T12:13:05;1.63;;;1.52;;
5225;SDS011;2632;51.666;7.146;2024-03-02T12:15:34;4.78;;;1.20;;
5225;SDS011;2632;51.666;7.146;2024-03-02T12:18:05;1.40;;;1.27;;
5225;SDS011;2632;51.666;7.146;2024-03-02T12:20:32;2.17;;;1.40;;
5225;SDS011;2632;51.666;7.146;2024-03-02T12:23:00;1.38;;;0.90;;
5225;SDS011;2632;51.666;7.146;2024-03-02T12:25:28;3.28;;;1.50;;
5225;SDS011;2632;51.666;7.146;2024-03-02T12:27:58;2.45;;;1.00;;
5225;SDS011;2632;51.666;7.146;2024-03-02T12:30:26;1.23;;;1.00;;
5225;SDS011;2632;51.666;7.146;2024-03-02T12:32:57;1.10;;;1.00;;
5225;SDS011;2632;51.666;7.146;2024-03-02T12:35:24;1.27;;;0.93;;
5225;SDS011;2632;51.666;7.146;2024-03-02T12:37:52;1.30;;;0.90;;
5225;SDS011;2632;51.666;7.146;2024-03-02T12:40:20;1.27;;;1.00;;
5225;SDS011;2632;51.666;7.146;2024-03-02T12:42:49;1.43;;;0.80;;
5225;SDS011;2632;51.666;7.146;2024-03-02T12:45:16;1.33;;;0.90;;
5225;SDS011;2632;51.666;7.146;2024-03-02T12:47:50;1.33;;;0.90;;
5225;SDS011;2632;51.666;7.146;2024-03-02T12:50:18;2.27;;;1.10;;
5225;SDS011;2632;51.666;7.146;2024-03-02T12:52:50;2.80;;;0.83;;
5225;SDS011;2632;51.666;7.146;2024-03-02T12:55:21;0.90;;;0.80;;
5225;SDS011;2632;51.666;7.146;2024-03-02T12:57:49;1.00;;;0.80;;
5225;SDS011;2632;51.666;7.146;2024-03-02T13:00:18;2.70;;;1.00;;
5225;SDS011;2632;51.666;7.146;2024-03-02T13:02:45;2.40;;;1.00;;
5225;SDS011;2632;51.666;7.146;2024-03-02T13:05:13;5.47;;;1.10;;
5225;SDS011;2632;51.666;7.146;2024-03-02T13:07:40;1.40;;;1.00;;
5225;SDS011;2632;51.666;7.146;2024-03-02T13:10:07;1.43;;;1.00;;
5225;SDS011;2632;51.666;7.146;2024-03-02T13:12:35;1.40;;;1.20;;
5225;SDS011;2632;51.666;7.146;2024-03-02T13:15:03;1.53;;;0.70;;
5225;SDS011;2632;51.666;7.146;2024-03-02T13:17:31;2.00;;;1.07;;
5225;SDS011;2632;51.666;7.146;2024-03-02T13:20:04;1.10;;;0.97;;
5225;SDS011;2632;51.666;7.146;2024-03-02T13:22:36;2.60;;;1.20;;
5225;SDS011;2632;51.666;7.146;2024-03-02T13:25:03;1.40;;;1.00;;
5225;SDS011;2632;51.666;7.146;2024-03-02T13:27:31;1.70;;;1.07;;
5225;SDS011;2632;51.666;7.146;2024-03-02T13:29:59;2.30;;;1.47;;
5225;SDS011;2632;51.666;7.146;2024-03-02T13:32:26;5.00;;;3.30;;
5225;SDS011;2632;51.666;7.146;2024-03-02T13:34:52;6.20;;;3.13;;
5225;SDS011;2632;51.666;7.146;2024-03-02T13:37:20;3.50;;;2.43;;
5225;SDS011;2632;51.666;7.146;2024-03-02T13:39:47;2.37;;;1.70;;
5225;SDS011;2632;51.666;7.146;2024-03-02T13:42:14;2.10;;;0.90;;
5225;SDS011;2632;51.666;7.146;2024-03-02T13:44:44;1.73;;;0.97;;
5225;SDS011;2632;51.666;7.146;2024-03-02T13:47:13;1.20;;;0.90;;
5225;SDS011;2632;51.666;7.146;2024-03-02T13:49:40;1.80;;;0.60;;
5225;SDS011;2632;51.666;7.146;2024-03-02T13:52:11;1.20;;;0.90;;
5225;SDS011;2632;51.666;7.146;2024-03-02T13:54:41;2.13;;;0.80;;
5225;SDS011;2632;51.666;7.146;2024-03-02T13:57:09;1.00;;;0.80;;
5225;SDS011;2632;51.666;7.146;2024-03-02T13:59:37;1.07;;;0.70;;
5225;SDS011;2632;51.666;7.146;2024-03-02T14:02:04;1.93;;;0.80;;
5225;SDS011;2632;51.666;7.146;2024-03-02T14:04:32;1.97;;;0.90;;
5225;SDS011;2632;51.666;7.146;2024-03-02T14:07:02;3.40;;;0.80;;
5225;SDS011;2632;51.666;7.146;2024-03-02T14:09:29;1.07;;;0.77;;
5225;SDS011;2632;51.666;7.146;2024-03-02T14:11:57;0.70;;;0.60;;
5225;SDS011;2632;51.666;7.146;2024-03-02T14:14:26;1.03;;;0.83;;
5225;SDS011;2632;51.666;7.146;2024-03-02T14:16:54;1.13;;;0.90;;
5225;SDS011;2632;51.666;7.146;2024-03-02T14:19:26;1.00;;;0.90;;
5225;SDS011;2632;51.666;7.146;2024-03-02T14:21:53;2.10;;;1.20;;
5225;SDS011;2632;51.666;7.146;2024-03-02T14:24:20;3.10;;;1.40;;
5225;SDS011;2632;51.666;7.146;2024-03-02T14:26:50;2.17;;;1.80;;
5225;SDS011;2632;51.666;7.146;2024-03-02T14:29:18;5.17;;;3.77;;
5225;SDS011;2632;51.666;7.146;2024-03-02T14:31:45;7.40;;;4.47;;
5225;SDS011;2632;51.666;7.146;2024-03-02T14:34:14;32.50;;;19.23;;
5225;SDS011;2632;51.666;7.146;2024-03-02T14:36:41;3.60;;;3.00;;
5225;SDS011;2632;51.666;7.146;2024-03-02T14:39:11;1.00;;;0.90;;
5225;SDS011;2632;51.666;7.146;2024-03-02T14:41:38;3.03;;;1.97;;
5225;SDS011;2632;51.666;7.146;2024-03-02T14:44:05;2.07;;;1.50;;
5225;SDS011;2632;51.666;7.146;2024-03-02T14:46:31;2.00;;;1.57;;
5225;SDS011;2632;51.666;7.146;2024-03-02T14:48:58;2.13;;;1.80;;
5225;SDS011;2632;51.666;7.146;2024-03-02T14:51:25;4.03;;;2.90;;
5225;SDS011;2632;51.666;7.146;2024-03-02T14:53:52;15.67;;;10.07;;
5225;SDS011;2632;51.666;7.146;2024-03-02T14:56:18;9.97;;;5.60;;
5225;SDS011;2632;51.666;7.146;2024-03-02T14:58:45;3.60;;;2.17;;
5225;SDS011;2632;51.666;7.146;2024-03-02T15:01:12;1.53;;;0.90;;
5225;SDS011;2632;51.666;7.146;2024-03-02T15:03:39;1.53;;;0.90;;
5225;SDS011;2632;51.666;7.146;2024-03-02T15:06:06;2.90;;;1.10;;
5225;SDS011;2632;51.666;7.146;2024-03-02T15:08:33;1.20;;;1.07;;
5225;SDS011;2632;51.666;7.146;2024-03-02T15:11:00;1.47;;;1.00;;
5225;SDS011;2632;51.666;7.146;2024-03-02T15:13:27;1.53;;;1.10;;
5225;SDS011;2632;51.666;7.146;2024-03-02T15:15:54;4.43;;;1.70;;
5225;SDS011;2632;51.666;7.146;2024-03-02T15:18:20;1.03;;;0.90;;
5225;SDS011;2632;51.666;7.146;2024-03-02T15:20:47;2.13;;;1.10;;
5225;SDS011;2632;51.666;7.146;2024-03-02T15:23:14;1.43;;;1.17;;
5225;SDS011;2632;51.666;7.146;2024-03-02T15:25:40;2.53;;;1.37;;
5225;SDS011;2632;51.666;7.146;2024-03-02T15:28:07;1.57;;;0.90;;
5225;SDS011;2632;51.666;7.146;2024-03-02T15:30:34;0.90;;;0.90;;